Time;durP1;ratioP1;P1;durP2;ratioP2;P2;SDS_P1;SDS_P2;PMS_P1;PMS_P2;Temp;Humidity;BMP_temperature;BMP_pressure;BME280_temperature;BME280_humidity;BME280_pressure;Samples;Min_cycle;Max_cycle;Signal;HPM_P1;HPM_P2
2021/11/27 00:03:53;;;;;;;;;;;15.60;38.90;;;;;;8364390;28;20011;-47
2021/11/27 00:07:54;;;;;;;;;;;15.60;38.80;;;;;;8364302;28;19917;-47
2021/11/27 00:11:55;;;;;;;;;;;15.60;39.30;;;;;;8363560;28;19921;-49
2021/11/27 00:15:56;;;;;;;;;;;15.60;38.80;;;;;;8364209;28;19921;-49
2021/11/27 00:19:56;;;;;;;;;;;15.60;38.80;;;;;;8359620;28;20357;-48
2021/11/27 00:23:57;;;;;;;;;;;15.60;38.80;;;;;;8362687;28;19924;-47
2021/11/27 00:27:57;;;;;;;;;;;15.60;38.70;;;;;;8363814;28;19943;-47
2021/11/27 00:31:58;;;;;;;;;;;15.60;38.70;;;;;;8363539;28;19921;-47
2021/11/27 00:35:58;;;;;;;;;;;15.70;38.80;;;;;;8363045;28;19916;-47
2021/11/27 00:39:59;;;;;;;;;;;15.70;38.70;;;;;;8363520;28;19921;-46
2021/11/27 00:43:59;;;;;;;;;;;15.70;38.70;;;;;;8363253;28;19916;-47
2021/11/27 00:48:00;;;;;;;;;;;15.70;38.70;;;;;;8362780;28;19923;-47
2021/11/27 00:52:01;;;;;;;;;;;15.70;38.70;;;;;;8363144;28;19927;-48
2021/11/27 00:56:02;;;;;;;;;;;15.70;38.70;;;;;;8363447;28;19924;-47
2021/11/27 01:00:04;;;;;;;;;;;15.70;38.70;;;;;;8369199;28;20451;-47
2021/11/27 01:04:05;;;;;;;;;;;15.70;38.70;;;;;;8369690;28;19916;-47
2021/11/27 01:08:06;;;;;;;;;;;15.70;38.70;;;;;;8369640;28;20433;-47
2021/11/27 01:12:07;;;;;;;;;;;15.70;38.70;;;;;;8369168;28;19917;-47
2021/11/27 01:16:08;;;;;;;;;;;15.60;38.70;;;;;;8369711;28;20467;-47
2021/11/27 01:20:10;;;;;;;;;;;15.60;38.80;;;;;;8369520;28;19974;-48
2021/11/27 01:24:11;;;;;;;;;;;15.60;38.80;;;;;;8368823;28;20004;-47
2021/11/27 01:28:15;;;;;;;;;;;15.60;38.80;;;;;;8369074;28;19917;-47
2021/11/27 01:32:16;;;;;;;;;;;15.60;38.80;;;;;;8368959;28;19928;-47
2021/11/27 01:36:16;;;;;;;;;;;15.60;38.80;;;;;;8368396;28;19917;-47
2021/11/27 01:40:19;;;;;;;;;;;15.60;38.80;;;;;;8369082;28;20293;-47
2021/11/27 01:44:20;;;;;;;;;;;15.60;38.80;;;;;;8368408;28;19916;-47
2021/11/27 01:48:21;;;;;;;;;;;15.60;38.80;;;;;;8368029;28;19943;-47
2021/11/27 01:52:22;;;;;;;;;;;15.60;38.80;;;;;;8368340;28;19952;-47
2021/11/27 01:56:27;;;;;;;;;;;15.60;38.80;;;;;;8368454;28;19927;-47
2021/11/27 02:00:31;;;;;;;;;;;15.60;38.80;;;;;;8367894;28;19921;-49
2021/11/27 02:04:31;;;;;;;;;;;15.60;38.80;;;;;;8366728;28;19924;-47
2021/11/27 02:08:32;;;;;;;;;;;15.60;38.80;;;;;;8367323;28;19964;-47
2021/11/27 02:12:32;;;;;;;;;;;15.60;38.90;;;;;;8367346;28;19917;-47
2021/11/27 02:16:33;;;;;;;;;;;15.60;38.90;;;;;;8367812;28;19917;-47
2021/11/27 02:20:57;;;;;;;;;;;15.60;38.90;;;;;;8367588;28;19927;-47
2021/11/27 02:24:57;;;;;;;;;;;15.60;38.90;;;;;;8367570;28;19921;-48
2021/11/27 02:29:00;;;;;;;;;;;15.60;38.90;;;;;;8367231;28;19997;-47
2021/11/27 02:33:00;;;;;;;;;;;15.60;38.90;;;;;;8366641;28;19948;-47
2021/11/27 02:37:01;;;;;;;;;;;15.60;38.80;;;;;;8367166;28;19917;-47
2021/11/27 02:41:02;;;;;;;;;;;15.60;38.80;;;;;;8366779;28;19921;-47
2021/11/27 02:45:04;;;;;;;;;;;15.60;38.80;;;;;;8366444;28;20393;-48
2021/11/27 02:49:06;;;;;;;;;;;15.60;38.80;;;;;;8366612;28;19924;-47
2021/11/27 02:53:06;;;;;;;;;;;15.60;38.80;;;;;;8366395;28;19923;-47
2021/11/27 02:57:07;;;;;;;;;;;15.60;38.80;;;;;;8365954;28;19947;-51
2021/11/27 03:01:09;;;;;;;;;;;15.60;38.80;;;;;;8366078;28;20453;-48
2021/11/27 03:05:10;;;;;;;;;;;15.60;38.70;;;;;;8366196;28;19923;-49
2021/11/27 03:09:12;;;;;;;;;;;15.60;38.70;;;;;;8365571;28;19917;-47
2021/11/27 03:13:13;;;;;;;;;;;15.60;38.70;;;;;;8366139;28;19917;-47
2021/11/27 03:17:14;;;;;;;;;;;15.60;38.70;;;;;;8365907;28;19959;-47
2021/11/27 03:21:14;;;;;;;;;;;15.60;38.80;;;;;;8364036;28;19925;-47
2021/11/27 03:25:15;;;;;;;;;;;15.60;38.80;;;;;;8365599;28;20390;-48
2021/11/27 03:29:16;;;;;;;;;;;15.60;38.80;;;;;;8365292;28;19921;-47
2021/11/27 03:33:16;;;;;;;;;;;15.60;38.80;;;;;;8364716;28;19939;-48
2021/11/27 03:37:18;;;;;;;;;;;15.60;38.90;;;;;;8365215;28;19919;-47
2021/11/27 03:41:18;;;;;;;;;;;15.60;38.80;;;;;;8364942;28;19951;-47
2021/11/27 03:45:19;;;;;;;;;;;15.60;38.90;;;;;;8364629;28;19996;-47
2021/11/27 03:49:24;;;;;;;;;;;15.60;38.90;;;;;;8364512;28;19924;-48
2021/11/27 03:53:25;;;;;;;;;;;15.60;38.90;;;;;;8364790;28;19948;-47
2021/11/27 03:57:26;;;;;;;;;;;15.60;38.90;;;;;;8364017;28;19921;-46
2021/11/27 04:01:27;;;;;;;;;;;15.60;38.90;;;;;;8364109;28;19974;-48
2021/11/27 04:05:27;;;;;;;;;;;15.60;38.90;;;;;;8364385;28;20007;-47
2021/11/27 04:09:28;;;;;;;;;;;15.50;38.90;;;;;;8363676;28;19975;-46
2021/11/27 04:13:28;;;;;;;;;;;15.50;38.90;;;;;;8364141;28;20011;-48
2021/11/27 04:17:29;;;;;;;;;;;15.50;38.90;;;;;;8364093;28;19920;-46
2021/11/27 04:21:30;;;;;;;;;;;15.50;38.90;;;;;;8363419;28;19979;-49
2021/11/27 04:25:30;;;;;;;;;;;15.50;38.90;;;;;;8363892;28;19921;-47
2021/11/27 04:29:31;;;;;;;;;;;15.50;38.90;;;;;;8363601;28;19963;-51
2021/11/27 04:33:32;;;;;;;;;;;15.50;38.90;;;;;;8362877;28;19917;-49
2021/11/27 04:37:32;;;;;;;;;;;15.60;38.90;;;;;;8363400;28;19928;-47
2021/11/27 04:41:33;;;;;;;;;;;15.60;38.90;;;;;;8363546;28;19955;-48
2021/11/27 04:45:33;;;;;;;;;;;15.60;38.90;;;;;;8362837;28;19917;-49
2021/11/27 04:49:34;;;;;;;;;;;15.60;38.80;;;;;;8363270;28;19939;-48
2021/11/27 04:53:34;;;;;;;;;;;15.60;38.80;;;;;;8363223;28;19966;-47
2021/11/27 04:57:35;;;;;;;;;;;15.60;38.80;;;;;;8363029;28;19991;-48
2021/11/27 05:01:36;;;;;;;;;;;15.60;38.80;;;;;;8363325;28;19947;-47
2021/11/27 05:05:37;;;;;;;;;;;15.60;38.80;;;;;;8362977;28;19921;-48
2021/11/27 05:09:37;;;;;;;;;;;15.70;38.80;;;;;;8361790;28;20423;-48
2021/11/27 05:13:39;;;;;;;;;;;15.60;38.80;;;;;;8362696;28;20396;-51
2021/11/27 05:17:39;;;;;;;;;;;15.60;38.80;;;;;;8362360;28;19956;-47
2021/11/27 05:21:40;;;;;;;;;;;15.60;38.80;;;;;;8363221;28;19928;-48
2021/11/27 05:25:40;;;;;;;;;;;15.60;38.80;;;;;;8362565;28;19924;-48
2021/11/27 05:29:41;;;;;;;;;;;15.60;38.80;;;;;;8362209;28;20370;-47
2021/11/27 05:37:46;;;;;;;;;;;15.60;38.90;;;;;;8362772;28;19916;-49
2021/11/27 05:41:46;;;;;;;;;;;15.60;38.90;;;;;;8362343;28;19921;-48
2021/11/27 05:45:46;;;;;;;;;;;15.60;38.90;;;;;;8367824;28;20293;-47
2021/11/27 05:49:47;;;;;;;;;;;15.60;38.90;;;;;;8368565;28;19924;-47
2021/11/27 05:53:48;;;;;;;;;;;15.60;38.90;;;;;;8367975;28;19921;-47
2021/11/27 05:57:49;;;;;;;;;;;15.60;38.90;;;;;;8368674;28;20381;-47
2021/11/27 06:01:49;;;;;;;;;;;15.60;38.90;;;;;;8368523;28;19920;-46
2021/11/27 06:05:50;;;;;;;;;;;15.60;39.50;;;;;;8367622;28;20277;-48
2021/11/27 06:09:50;;;;;;;;;;;15.60;38.90;;;;;;8368146;28;19917;-46
2021/11/27 06:13:51;;;;;;;;;;;15.60;38.90;;;;;;8367868;28;19924;-45
2021/11/27 06:17:53;;;;;;;;;;;15.60;38.90;;;;;;8367177;28;19926;-47
2021/11/27 06:21:54;;;;;;;;;;;15.50;38.90;;;;;;8367627;28;19925;-46
2021/11/27 06:25:55;;;;;;;;;;;15.60;39.00;;;;;;8367258;28;20039;-46
2021/11/27 06:29:55;;;;;;;;;;;15.60;39.00;;;;;;8366827;28;19987;-47
2021/11/27 06:33:56;;;;;;;;;;;15.60;39.00;;;;;;8366967;28;20016;-47
2021/11/27 06:37:56;;;;;;;;;;;15.60;39.00;;;;;;8367003;28;19970;-47
2021/11/27 06:41:57;;;;;;;;;;;15.60;39.00;;;;;;8366649;28;19954;-47
2021/11/27 06:45:58;;;;;;;;;;;15.60;39.00;;;;;;8366975;28;19921;-47
2021/11/27 06:49:59;;;;;;;;;;;15.50;39.00;;;;;;8366764;28;19928;-47
2021/11/27 06:53:59;;;;;;;;;;;15.60;39.00;;;;;;8365857;28;20393;-48
2021/11/27 06:58:00;;;;;;;;;;;15.60;39.00;;;;;;8366764;28;20378;-47
2021/11/27 07:02:00;;;;;;;;;;;15.60;39.00;;;;;;8365675;28;19925;-46
2021/11/27 07:06:02;;;;;;;;;;;15.60;39.00;;;;;;8365717;28;19916;-47
2021/11/27 07:10:03;;;;;;;;;;;15.60;39.10;;;;;;8366134;28;19959;-46
2021/11/27 07:14:04;;;;;;;;;;;15.50;39.00;;;;;;8365915;28;19951;-47
2021/11/27 07:18:04;;;;;;;;;;;15.60;39.00;;;;;;8365362;28;19931;-47
2021/11/27 07:22:05;;;;;;;;;;;15.50;39.00;;;;;;8366004;28;19927;-47
2021/11/27 07:26:05;;;;;;;;;;;15.60;39.00;;;;;;8365340;28;19917;-46
2021/11/27 07:30:06;;;;;;;;;;;15.60;39.10;;;;;;8364879;28;19963;-47
2021/11/27 07:34:07;;;;;;;;;;;15.50;39.00;;;;;;8365286;28;19944;-48
2021/11/27 07:38:07;;;;;;;;;;;15.60;39.10;;;;;;8364968;28;19920;-47
2021/11/27 07:42:07;;;;;;;;;;;15.60;39.10;;;;;;8364829;28;20298;-47
2021/11/27 07:46:08;;;;;;;;;;;15.60;39.10;;;;;;8364884;28;19927;-47
2021/11/27 07:50:09;;;;;;;;;;;15.50;39.00;;;;;;8364655;28;19943;-47
2021/11/27 07:54:09;;;;;;;;;;;15.60;39.10;;;;;;8364141;28;20289;-48
2021/11/27 07:58:10;;;;;;;;;;;15.50;39.00;;;;;;8364847;28;19921;-47
2021/11/27 08:02:10;;;;;;;;;;;15.60;39.10;;;;;;8364399;28;19931;-48
2021/11/27 08:06:11;;;;;;;;;;;15.50;39.00;;;;;;8344660;28;20397;-48
2021/11/27 08:10:12;;;;;;;;;;;15.50;39.60;;;;;;8348782;28;19921;-47
2021/11/27 08:14:14;;;;;;;;;;;15.60;39.10;;;;;;8363085;28;21146;-48
2021/11/27 08:18:15;;;;;;;;;;;15.60;39.10;;;;;;8363316;28;19913;-47
2021/11/27 08:22:15;;;;;;;;;;;15.60;39.10;;;;;;8363661;28;20292;-47
2021/11/27 08:26:16;;;;;;;;;;;15.60;39.10;;;;;;8362758;28;19927;-50
2021/11/27 08:30:17;;;;;;;;;;;15.60;39.10;;;;;;8363193;28;19924;-47
2021/11/27 08:34:17;;;;;;;;;;;15.60;39.10;;;;;;8363654;28;19917;-47
2021/11/27 08:38:18;;;;;;;;;;;15.60;39.10;;;;;;8363470;28;19912;-48
2021/11/27 08:42:21;;;;;;;;;;;15.60;39.10;;;;;;8363073;28;20305;-48
2021/11/27 08:46:22;;;;;;;;;;;15.70;39.10;;;;;;8363196;28;19916;-47
2021/11/27 08:50:22;;;;;;;;;;;15.70;39.10;;;;;;8363369;28;20351;-46
2021/11/27 08:54:23;;;;;;;;;;;15.70;39.10;;;;;;8362718;28;20273;-49
2021/11/27 08:58:23;;;;;;;;;;;15.70;39.10;;;;;;8363778;28;19960;-47
2021/11/27 09:02:24;;;;;;;;;;;15.70;39.10;;;;;;8363069;28;19925;-48
2021/11/27 09:06:25;;;;;;;;;;;15.70;39.10;;;;;;8362437;28;20380;-47
2021/11/27 09:10:25;;;;;;;;;;;15.70;39.10;;;;;;8363100;28;19916;-46
2021/11/27 09:14:26;;;;;;;;;;;15.70;39.10;;;;;;8362995;28;19991;-47
2021/11/27 09:18:29;;;;;;;;;;;15.80;39.10;;;;;;8364456;28;20012;-46
2021/11/27 09:22:29;;;;;;;;;;;15.70;39.30;;;;;;8369174;28;19928;-49
2021/11/27 09:26:31;;;;;;;;;;;15.80;39.10;;;;;;8369248;28;20000;-47
2021/11/27 09:30:32;;;;;;;;;;;15.80;39.10;;;;;;8368600;28;19921;-46
2021/11/27 09:34:32;;;;;;;;;;;15.80;39.10;;;;;;8369026;28;19932;-46
2021/11/27 09:38:34;;;;;;;;;;;15.80;39.10;;;;;;8369083;28;19990;-47
2021/11/27 09:42:36;;;;;;;;;;;15.80;39.10;;;;;;8368124;28;19967;-50
2021/11/27 09:46:38;;;;;;;;;;;15.80;39.10;;;;;;8368626;28;19966;-48
2021/11/27 09:50:39;;;;;;;;;;;15.80;39.00;;;;;;8368023;28;20271;-49
2021/11/27 09:54:40;;;;;;;;;;;15.80;39.00;;;;;;8368384;28;19949;-50
2021/11/27 09:58:41;;;;;;;;;;;15.80;39.00;;;;;;8368607;28;19912;-50
2021/11/27 10:02:42;;;;;;;;;;;15.90;39.70;;;;;;8367575;28;19968;-49
2021/11/27 10:06:44;;;;;;;;;;;15.80;39.10;;;;;;8368065;28;20011;-46
2021/11/27 10:10:45;;;;;;;;;;;15.90;39.10;;;;;;8367632;28;20302;-49
2021/11/27 10:14:45;;;;;;;;;;;15.90;39.10;;;;;;8367351;28;20066;-48
2021/11/27 10:19:01;;;;;;;;;;;15.80;39.10;;;;;;8367682;28;19920;-47
2021/11/27 10:23:02;;;;;;;;;;;15.80;39.10;;;;;;8367424;28;20281;-46
2021/11/27 10:27:04;;;;;;;;;;;15.90;39.20;;;;;;8366859;28;19920;-51
2021/11/27 10:31:05;;;;;;;;;;;15.90;39.20;;;;;;8366601;28;19923;-48
2021/11/27 10:35:13;;;;;;;;;;;15.90;39.20;;;;;;8367192;28;20321;-47
2021/11/27 10:39:14;;;;;;;;;;;15.80;39.20;;;;;;8366521;28;19920;-47
2021/11/27 10:43:14;;;;;;;;;;;15.80;39.20;;;;;;8366992;28;19920;-53
2021/11/27 10:47:16;;;;;;;;;;;15.80;39.20;;;;;;8367042;28;19970;-50
2021/11/27 10:51:19;;;;;;;;;;;15.80;39.20;;;;;;8366122;28;19920;-47
2021/11/27 10:55:21;;;;;;;;;;;15.80;39.20;;;;;;8366668;28;20312;-51
2021/11/27 10:59:22;;;;;;;;;;;15.80;39.20;;;;;;8364859;28;19948;-51
2021/11/27 11:03:24;;;;;;;;;;;15.80;39.20;;;;;;8366026;28;19921;-48
2021/11/27 11:07:26;;;;;;;;;;;15.80;39.30;;;;;;8363934;28;19963;-47
2021/11/27 11:11:27;;;;;;;;;;;15.90;39.30;;;;;;8365732;28;19998;-47
2021/11/27 11:15:38;;;;;;;;;;;15.90;39.30;;;;;;8365598;28;19959;-46
2021/11/27 11:19:39;;;;;;;;;;;15.90;39.30;;;;;;8365945;28;19913;-47
2021/11/27 11:23:43;;;;;;;;;;;16.00;39.30;;;;;;8365635;28;19925;-47
2021/11/27 11:27:45;;;;;;;;;;;16.00;39.20;;;;;;8365761;28;19916;-48
2021/11/27 11:31:46;;;;;;;;;;;16.00;39.20;;;;;;8365671;28;19916;-47
2021/11/27 11:35:47;;;;;;;;;;;16.10;39.20;;;;;;8364846;28;19985;-47
2021/11/27 11:39:47;;;;;;;;;;;16.00;39.20;;;;;;8364729;28;19917;-48
2021/11/27 11:43:49;;;;;;;;;;;16.10;39.20;;;;;;8364906;28;19925;-47
2021/11/27 11:47:49;;;;;;;;;;;16.10;39.20;;;;;;8364598;28;19927;-47
2021/11/27 11:52:02;;;;;;;;;;;16.10;39.20;;;;;;8365091;28;19917;-48
2021/11/27 11:56:09;;;;;;;;;;;16.10;39.20;;;;;;8365026;28;19943;-49
2021/11/27 12:00:18;;;;;;;;;;;16.10;39.20;;;;;;8361602;28;19948;-48
2021/11/27 12:04:22;;;;;;;;;;;16.10;39.20;;;;;;8364660;28;19917;-47
2021/11/27 12:08:41;;;;;;;;;;;16.20;39.70;;;;;;8364409;28;20286;-47
2021/11/27 12:12:42;;;;;;;;;;;16.20;39.20;;;;;;8363876;28;19986;-49
2021/11/27 12:17:01;;;;;;;;;;;16.20;39.20;;;;;;8364025;28;20337;-49
2021/11/27 12:21:02;;;;;;;;;;;16.20;39.20;;;;;;8363299;28;19925;-49
2021/11/27 12:25:07;;;;;;;;;;;16.20;39.20;;;;;;8363745;28;20413;-49
2021/11/27 12:29:08;;;;;;;;;;;16.20;39.20;;;;;;8363965;28;19967;-47
2021/11/27 12:33:28;;;;;;;;;;;16.20;39.10;;;;;;8363187;28;20270;-48
2021/11/27 12:37:29;;;;;;;;;;;16.20;39.10;;;;;;8363394;28;19924;-49
2021/11/27 12:41:31;;;;;;;;;;;16.20;39.10;;;;;;8363262;28;19925;-47
2021/11/27 12:45:39;;;;;;;;;;;16.20;39.10;;;;;;8362861;28;19917;-49
2021/11/27 12:49:39;;;;;;;;;;;16.20;39.10;;;;;;8360372;28;20297;-47
2021/11/27 12:53:40;;;;;;;;;;;16.20;39.10;;;;;;8360070;28;19917;-47
2021/11/27 12:57:42;;;;;;;;;;;16.20;39.00;;;;;;8359561;28;19995;-47
2021/11/27 13:01:42;;;;;;;;;;;16.20;39.00;;;;;;8358839;28;20012;-49
2021/11/27 13:05:43;;;;;;;;;;;16.20;39.00;;;;;;8361240;28;20336;-48
2021/11/27 13:09:53;;;;;;;;;;;16.30;39.00;;;;;;8362823;28;20008;-48
2021/11/27 13:13:53;;;;;;;;;;;16.20;39.00;;;;;;8363011;28;19917;-47
2021/11/27 13:18:07;;;;;;;;;;;16.20;39.00;;;;;;8362090;28;19928;-46
2021/11/27 13:22:07;;;;;;;;;;;16.20;39.00;;;;;;8362516;28;20008;-47
2021/11/27 13:26:31;;;;;;;;;;;16.20;39.00;;;;;;8350642;28;20320;-47
2021/11/27 13:30:37;;;;;;;;;;;16.20;39.00;;;;;;8361898;28;19920;-47
2021/11/27 13:34:37;;;;;;;;;;;16.20;39.00;;;;;;8362721;28;19912;-49
2021/11/27 13:38:37;;;;;;;;;;;16.20;39.00;;;;;;8361954;28;19924;-47
2021/11/27 13:42:38;;;;;;;;;;;16.20;38.90;;;;;;8362326;28;19932;-47
2021/11/27 13:46:55;;;;;;;;;;;16.20;38.90;;;;;;8362518;28;19986;-47
2021/11/27 13:50:56;;;;;;;;;;;16.20;38.90;;;;;;8361942;28;20016;-48
2021/11/27 13:54:57;;;;;;;;;;;16.20;38.90;;;;;;8362216;28;20365;-48
2021/11/27 13:58:58;;;;;;;;;;;16.20;39.00;;;;;;8362233;28;19962;-46
2021/11/27 14:03:03;;;;;;;;;;;16.20;38.90;;;;;;8355655;28;20370;-49
2021/11/27 14:07:04;;;;;;;;;;;16.20;39.00;;;;;;8366350;28;20382;-49
2021/11/27 14:11:08;;;;;;;;;;;16.20;39.00;;;;;;8366975;28;19916;-46
2021/11/27 14:15:17;;;;;;;;;;;16.20;38.90;;;;;;8367643;28;19913;-47
2021/11/27 14:19:26;;;;;;;;;;;16.20;38.90;;;;;;8367293;28;19916;-48
2021/11/27 14:23:31;;;;;;;;;;;16.20;39.00;;;;;;8370525;28;19929;-47
2021/11/27 14:27:31;;;;;;;;;;;16.20;39.00;;;;;;8366835;28;19917;-48
2021/11/27 14:31:33;;;;;;;;;;;16.20;39.00;;;;;;8367044;28;20430;-46
2021/11/27 14:35:34;;;;;;;;;;;16.20;39.00;;;;;;8367649;28;19913;-47
2021/11/27 14:39:34;;;;;;;;;;;16.20;39.00;;;;;;8366465;28;19921;-47
2021/11/27 14:43:52;;;;;;;;;;;16.20;39.00;;;;;;8366889;28;19924;-47
2021/11/27 14:47:52;;;;;;;;;;;16.20;38.90;;;;;;8366029;28;19917;-49
2021/11/27 14:51:53;;;;;;;;;;;16.20;38.90;;;;;;8366552;28;19917;-48
2021/11/27 14:55:53;;;;;;;;;;;16.10;38.90;;;;;;8366644;28;19921;-47
2021/11/27 14:59:57;;;;;;;;;;;16.10;38.90;;;;;;8366058;28;19925;-48
2021/11/27 15:03:57;;;;;;;;;;;16.10;38.90;;;;;;8362417;28;19925;-48
2021/11/27 15:07:57;;;;;;;;;;;16.20;39.00;;;;;;8363585;28;19959;-48
2021/11/27 15:11:58;;;;;;;;;;;16.10;38.90;;;;;;8364395;28;19932;-46
2021/11/27 15:15:58;;;;;;;;;;;16.20;38.90;;;;;;8362160;28;19920;-46
2021/11/27 15:19:59;;;;;;;;;;;16.10;38.90;;;;;;8365685;28;19920;-48
2021/11/27 15:24:00;;;;;;;;;;;16.10;38.90;;;;;;8365103;28;19924;-46
2021/11/27 15:28:00;;;;;;;;;;;16.20;38.90;;;;;;8365670;28;19921;-46
2021/11/27 15:32:04;;;;;;;;;;;16.10;38.80;;;;;;8365432;28;20381;-47
2021/11/27 15:36:05;;;;;;;;;;;16.10;38.80;;;;;;8364839;28;19917;-47
2021/11/27 15:40:05;;;;;;;;;;;16.10;38.80;;;;;;8365447;28;19917;-47
2021/11/27 15:44:06;;;;;;;;;;;16.20;38.90;;;;;;8365011;28;19920;-48
2021/11/27 15:48:07;;;;;;;;;;;16.10;38.80;;;;;;8364328;28;19916;-48
2021/11/27 15:52:07;;;;;;;;;;;16.10;38.80;;;;;;8364931;28;19912;-47
2021/11/27 15:56:08;;;;;;;;;;;16.10;38.80;;;;;;8365209;28;19920;-46
2021/11/27 16:00:09;;;;;;;;;;;16.10;38.80;;;;;;8364007;28;19917;-48
2021/11/27 16:04:09;;;;;;;;;;;16.10;38.80;;;;;;8364296;28;20429;-47
2021/11/27 16:08:10;;;;;;;;;;;16.10;38.80;;;;;;8364218;28;20290;-47
2021/11/27 16:12:11;;;;;;;;;;;16.10;38.80;;;;;;8363779;28;19917;-48
2021/11/27 16:16:11;;;;;;;;;;;16.10;38.80;;;;;;8364086;28;19967;-46
2021/11/27 16:20:12;;;;;;;;;;;16.10;38.70;;;;;;8363973;28;19962;-49
2021/11/27 16:24:12;;;;;;;;;;;16.10;39.20;;;;;;8363273;28;19920;-49
2021/11/27 16:28:13;;;;;;;;;;;16.10;39.30;;;;;;8363255;28;19970;-48
2021/11/27 16:32:14;;;;;;;;;;;16.10;39.30;;;;;;8363835;28;20285;-48
2021/11/27 16:36:14;;;;;;;;;;;16.10;39.20;;;;;;8363292;28;19913;-48
2021/11/27 16:40:15;;;;;;;;;;;16.10;39.20;;;;;;8363297;28;19940;-48
2021/11/27 16:44:15;;;;;;;;;;;16.10;39.10;;;;;;8363182;28;19920;-47
2021/11/27 16:48:16;;;;;;;;;;;16.10;39.10;;;;;;8362721;28;20014;-48
2021/11/27 16:52:16;;;;;;;;;;;16.10;39.10;;;;;;8363118;28;19924;-48
2021/11/27 16:56:17;;;;;;;;;;;16.10;39.10;;;;;;8363723;28;19921;-48
2021/11/27 17:00:19;;;;;;;;;;;16.10;39.00;;;;;;8362486;28;19917;-48
2021/11/27 17:04:19;;;;;;;;;;;16.10;39.00;;;;;;8362930;28;19924;-48
2021/11/27 17:08:20;;;;;;;;;;;16.10;38.90;;;;;;8362886;28;20285;-47
2021/11/27 17:12:20;;;;;;;;;;;16.10;39.00;;;;;;8361376;28;19917;-48
2021/11/27 17:16:21;;;;;;;;;;;16.00;38.90;;;;;;8363226;28;19917;-49
2021/11/27 17:20:22;;;;;;;;;;;16.10;39.00;;;;;;8362577;28;19939;-49
2021/11/27 17:24:23;;;;;;;;;;;16.10;38.90;;;;;;8362304;28;20352;-49
2021/11/27 17:28:23;;;;;;;;;;;16.10;38.90;;;;;;8362643;28;19921;-48
2021/11/27 17:32:24;;;;;;;;;;;16.10;38.90;;;;;;8362537;28;20412;-49
2021/11/27 17:36:24;;;;;;;;;;;16.10;38.90;;;;;;8362206;28;19913;-49
2021/11/27 17:40:25;;;;;;;;;;;16.10;38.80;;;;;;8365827;28;19917;-48
2021/11/27 17:44:28;;;;;;;;;;;16.10;38.90;;;;;;8368632;28;19916;-48
2021/11/27 17:48:29;;;;;;;;;;;16.10;38.80;;;;;;8368186;28;20370;-48
2021/11/27 17:52:30;;;;;;;;;;;16.10;38.80;;;;;;8368791;28;20332;-48
2021/11/27 17:56:31;;;;;;;;;;;16.00;38.80;;;;;;8369137;28;19920;-48
2021/11/27 18:00:31;;;;;;;;;;;16.00;39.30;;;;;;8367558;28;19921;-47
2021/11/27 18:04:33;;;;;;;;;;;16.00;38.80;;;;;;8367972;28;19978;-48
2021/11/27 18:08:33;;;;;;;;;;;16.00;38.80;;;;;;8368108;28;20396;-49
2021/11/27 18:12:34;;;;;;;;;;;16.00;38.80;;;;;;8367482;28;19917;-49
2021/11/27 18:16:36;;;;;;;;;;;16.00;38.80;;;;;;8368193;28;19917;-48
2021/11/27 18:20:43;;;;;;;;;;;16.00;38.80;;;;;;8367643;28;19971;-48
2021/11/27 18:24:49;;;;;;;;;;;16.00;38.70;;;;;;8367400;28;20298;-48
2021/11/27 18:28:51;;;;;;;;;;;16.00;38.70;;;;;;8367262;28;19920;-48
2021/11/27 18:32:51;;;;;;;;;;;16.00;38.70;;;;;;8366714;28;19948;-49
2021/11/27 18:36:52;;;;;;;;;;;16.00;38.70;;;;;;8367588;28;20392;-47
2021/11/27 18:40:52;;;;;;;;;;;16.00;38.80;;;;;;8366805;28;19925;-48
2021/11/27 18:44:53;;;;;;;;;;;16.00;38.80;;;;;;8366425;28;20303;-48
2021/11/27 18:48:53;;;;;;;;;;;16.00;38.70;;;;;;8366930;28;20008;-49
2021/11/27 18:52:54;;;;;;;;;;;16.00;38.70;;;;;;8366289;28;19921;-48
2021/11/27 18:56:55;;;;;;;;;;;16.00;38.70;;;;;;8366611;28;20431;-47
2021/11/27 19:00:56;;;;;;;;;;;16.00;38.70;;;;;;8366211;28;19928;-48
2021/11/27 19:04:56;;;;;;;;;;;16.00;38.70;;;;;;8366394;28;20296;-48
2021/11/27 19:08:58;;;;;;;;;;;16.00;38.70;;;;;;8365800;28;19917;-51
2021/11/27 19:12:59;;;;;;;;;;;16.00;38.60;;;;;;8366054;28;20365;-49
2021/11/27 19:16:59;;;;;;;;;;;16.00;38.70;;;;;;8366200;28;19917;-49
2021/11/27 19:21:00;;;;;;;;;;;15.90;38.60;;;;;;8365318;28;19931;-48
2021/11/27 19:25:00;;;;;;;;;;;16.00;38.70;;;;;;8365650;28;19917;-48
2021/11/27 19:29:01;;;;;;;;;;;16.00;38.70;;;;;;8365645;28;19936;-48
2021/11/27 19:33:01;;;;;;;;;;;15.90;38.60;;;;;;8364939;28;20043;-48
2021/11/27 19:37:02;;;;;;;;;;;15.90;38.60;;;;;;8365874;28;19920;-48
2021/11/27 19:41:03;;;;;;;;;;;15.90;38.60;;;;;;8365007;28;19931;-48
2021/11/27 19:45:03;;;;;;;;;;;15.90;38.60;;;;;;8364527;28;19924;-48
2021/11/27 19:49:04;;;;;;;;;;;15.90;38.60;;;;;;8365015;28;19917;-48
2021/11/27 19:53:05;;;;;;;;;;;15.90;38.50;;;;;;8364786;28;19913;-49
2021/11/27 19:57:05;;;;;;;;;;;15.90;38.60;;;;;;8364857;28;19921;-48
2021/11/27 20:01:06;;;;;;;;;;;15.90;38.60;;;;;;8363121;28;19956;-48
2021/11/27 20:05:07;;;;;;;;;;;15.90;38.60;;;;;;8350092;28;19920;-47
2021/11/27 20:09:07;;;;;;;;;;;15.90;38.60;;;;;;8363843;28;19916;-48
2021/11/27 20:13:09;;;;;;;;;;;15.90;38.50;;;;;;8363976;28;20370;-48
2021/11/27 20:17:09;;;;;;;;;;;15.90;38.60;;;;;;8364305;28;19923;-49
2021/11/27 20:21:10;;;;;;;;;;;15.90;38.60;;;;;;8363217;28;20299;-47
2021/11/27 20:25:11;;;;;;;;;;;15.90;38.60;;;;;;8363738;28;19921;-49
2021/11/27 20:29:13;;;;;;;;;;;15.90;38.60;;;;;;8363657;28;19974;-49
2021/11/27 20:33:13;;;;;;;;;;;15.90;38.60;;;;;;8363000;28;19913;-48
2021/11/27 20:37:14;;;;;;;;;;;15.90;38.60;;;;;;8364007;28;19913;-48
2021/11/27 20:41:15;;;;;;;;;;;15.90;38.50;;;;;;8363515;28;20015;-49
2021/11/27 20:45:15;;;;;;;;;;;15.90;38.50;;;;;;8362933;28;20425;-47
2021/11/27 20:49:16;;;;;;;;;;;15.90;38.50;;;;;;8363495;28;19932;-48
2021/11/27 20:53:16;;;;;;;;;;;15.90;38.50;;;;;;8363147;28;19923;-48
2021/11/27 20:57:17;;;;;;;;;;;15.80;38.50;;;;;;8363426;28;19925;-49
2021/11/27 21:01:17;;;;;;;;;;;15.90;38.50;;;;;;8362912;28;19964;-48
2021/11/27 21:05:18;;;;;;;;;;;15.80;38.50;;;;;;8362986;28;19936;-48
2021/11/27 21:09:18;;;;;;;;;;;15.80;38.50;;;;;;8362582;28;19917;-48
2021/11/27 21:13:19;;;;;;;;;;;15.90;38.50;;;;;;8364627;28;19920;-48
2021/11/27 21:17:21;;;;;;;;;;;15.80;38.50;;;;;;8369927;28;19966;-48
2021/11/27 21:21:21;;;;;;;;;;;15.80;38.50;;;;;;8368919;28;19925;-48
2021/11/27 21:25:22;;;;;;;;;;;15.80;38.40;;;;;;8369541;28;19917;-47
2021/11/27 21:29:23;;;;;;;;;;;15.80;38.50;;;;;;8369174;28;19920;-48
2021/11/27 21:33:23;;;;;;;;;;;15.80;38.50;;;;;;8368830;28;19917;-47
2021/11/27 21:37:24;;;;;;;;;;;15.80;38.50;;;;;;8369256;28;20007;-47
2021/11/27 21:41:24;;;;;;;;;;;15.80;38.50;;;;;;8368701;28;19971;-48
2021/11/27 21:45:25;;;;;;;;;;;15.80;38.50;;;;;;8368141;28;19917;-48
2021/11/27 21:49:26;;;;;;;;;;;15.80;38.50;;;;;;8368537;28;19916;-48
2021/11/27 21:53:26;;;;;;;;;;;15.80;38.50;;;;;;8368770;28;20004;-49
2021/11/27 21:57:27;;;;;;;;;;;15.80;38.50;;;;;;8368320;28;20318;-49
2021/11/27 22:01:27;;;;;;;;;;;15.80;38.50;;;;;;8368429;28;19932;-49
2021/11/27 22:05:28;;;;;;;;;;;15.80;38.50;;;;;;8368150;28;19913;-48
2021/11/27 22:09:29;;;;;;;;;;;15.80;38.50;;;;;;8367390;28;19924;-48
2021/11/27 22:13:29;;;;;;;;;;;15.80;38.50;;;;;;8368037;28;19990;-48
2021/11/27 22:17:30;;;;;;;;;;;15.80;38.50;;;;;;8367674;28;19959;-49
2021/11/27 22:21:30;;;;;;;;;;;15.80;38.40;;;;;;8367038;28;19928;-48
2021/11/27 22:25:31;;;;;;;;;;;15.80;38.40;;;;;;8367125;28;19917;-48
2021/11/27 22:29:32;;;;;;;;;;;15.80;38.40;;;;;;8367342;28;19917;-48
2021/11/27 22:33:32;;;;;;;;;;;15.80;38.40;;;;;;8366914;28;19936;-48
2021/11/27 22:37:33;;;;;;;;;;;15.80;38.40;;;;;;8367165;28;19923;-49
2021/11/27 22:41:33;;;;;;;;;;;15.80;38.30;;;;;;8366946;28;19925;-48
2021/11/27 22:45:34;;;;;;;;;;;15.80;38.40;;;;;;8366378;28;20412;-48
2021/11/27 22:49:35;;;;;;;;;;;15.80;38.40;;;;;;8366736;28;19913;-49
2021/11/27 22:53:36;;;;;;;;;;;15.80;38.40;;;;;;8366894;28;19917;-49
2021/11/27 22:57:36;;;;;;;;;;;15.80;38.40;;;;;;8366454;28;20352;-49
2021/11/27 23:01:37;;;;;;;;;;;15.80;38.40;;;;;;8365402;28;19928;-49
2021/11/27 23:05:38;;;;;;;;;;;15.70;38.40;;;;;;8366137;28;20366;-48
2021/11/27 23:09:38;;;;;;;;;;;15.70;38.40;;;;;;8365079;28;20007;-49
2021/11/27 23:13:39;;;;;;;;;;;15.70;38.40;;;;;;8366167;28;19912;-48
2021/11/27 23:17:40;;;;;;;;;;;15.70;38.40;;;;;;8365363;28;19921;-51
2021/11/27 23:21:42;;;;;;;;;;;15.80;38.40;;;;;;8366046;28;19936;-50
2021/11/27 23:25:42;;;;;;;;;;;15.70;38.50;;;;;;8365883;28;19913;-49
2021/11/27 23:29:43;;;;;;;;;;;15.70;38.50;;;;;;8364996;28;19928;-47